createdAt,value
2018-11-04T00:00:58.008Z,90.50
2018-11-04T00:03:26.485Z,90.60
2018-11-04T00:05:54.741Z,90.60
2018-11-04T00:08:22.955Z,90.60
2018-11-04T00:10:51.315Z,90.60
2018-11-04T00:13:19.995Z,90.60
2018-11-04T00:15:48.214Z,91.00
2018-11-04T00:18:16.490Z,90.80
2018-11-04T00:20:44.822Z,90.80
2018-11-04T00:23:13.047Z,90.80
2018-11-04T00:25:41.307Z,90.80
2018-11-04T00:28:09.494Z,90.80
2018-11-04T00:30:37.791Z,90.80
2018-11-04T00:33:06.016Z,90.90
2018-11-04T00:35:34.246Z,90.90
2018-11-04T00:38:02.469Z,91.00
2018-11-04T00:40:30.866Z,90.90
2018-11-04T00:42:59.062Z,90.90
2018-11-04T00:45:27.377Z,90.90
2018-11-04T00:47:55.488Z,90.90
2018-11-04T00:50:23.696Z,90.90
2018-11-04T00:52:52.087Z,90.90
2018-11-04T00:55:20.287Z,90.90
2018-11-04T00:57:48.675Z,91.00
2018-11-04T01:00:20.446Z,91.00
2018-11-04T01:02:49.865Z,91.00
2018-11-04T01:05:18.519Z,91.00
2018-11-04T01:07:46.767Z,91.10
2018-11-04T01:10:15.138Z,91.10
2018-11-04T01:12:44.174Z,91.10
2018-11-04T01:15:13.495Z,91.10
2018-11-04T01:17:42.391Z,91.10
2018-11-04T01:20:12.787Z,91.10
2018-11-04T01:22:41.014Z,91.10
2018-11-04T01:25:09.317Z,91.20
2018-11-04T01:27:37.646Z,91.20
2018-11-04T01:30:07.619Z,91.30
2018-11-04T01:32:37.838Z,91.40
2018-11-04T01:35:06.250Z,91.50
2018-11-04T01:37:34.636Z,91.40
2018-11-04T01:40:02.824Z,91.40
2018-11-04T01:42:31.015Z,91.20
2018-11-04T01:44:59.342Z,91.10
2018-11-04T01:47:27.546Z,91.20
2018-11-04T01:49:55.830Z,91.20
2018-11-04T01:52:24.329Z,91.20
2018-11-04T01:54:52.519Z,91.40
2018-11-04T01:57:20.778Z,91.40
2018-11-04T01:59:51.070Z,91.50
2018-11-04T02:02:19.283Z,92.00
2018-11-04T02:04:47.880Z,92.20
2018-11-04T02:07:16.081Z,92.20
2018-11-04T02:09:44.302Z,92.20
2018-11-04T02:12:12.522Z,92.10
2018-11-04T02:14:40.850Z,92.00
2018-11-04T02:17:09.050Z,92.20
2018-11-04T02:19:37.294Z,92.10
2018-11-04T02:22:06.057Z,92.00
2018-11-04T02:24:34.298Z,92.10
2018-11-04T02:27:02.500Z,92.20
2018-11-04T02:29:30.838Z,92.20
2018-11-04T02:31:59.088Z,92.20
2018-11-04T02:34:27.395Z,92.20
2018-11-04T02:36:55.806Z,92.20
2018-11-04T02:39:24.023Z,92.10
2018-11-04T02:41:52.258Z,92.00
2018-11-04T02:44:20.472Z,92.00
2018-11-04T02:46:48.727Z,92.10
2018-11-04T02:49:16.867Z,92.00
2018-11-04T02:51:45.109Z,92.10
2018-11-04T02:54:13.428Z,92.00
2018-11-04T02:56:41.652Z,92.00
2018-11-04T02:59:09.983Z,92.10
2018-11-04T03:01:38.284Z,92.10
2018-11-04T03:04:18.916Z,92.00
2018-11-04T03:06:53.221Z,91.90
2018-11-04T03:09:21.431Z,91.70
2018-11-04T03:11:49.670Z,91.70
2018-11-04T03:14:17.869Z,91.70
2018-11-04T03:16:46.049Z,91.70
2018-11-04T03:19:14.374Z,91.70
2018-11-04T03:21:43.929Z,91.80
2018-11-04T03:24:12.129Z,91.80
2018-11-04T03:26:40.339Z,91.80
2018-11-04T03:29:08.557Z,91.90
2018-11-04T03:31:36.893Z,91.90
2018-11-04T03:34:05.193Z,92.00
2018-11-04T03:36:33.408Z,92.00
2018-11-04T03:39:01.629Z,92.10
2018-11-04T03:41:29.789Z,92.10
2018-11-04T03:43:57.988Z,92.30
2018-11-04T03:46:26.184Z,92.30
2018-11-04T03:48:54.437Z,92.30
2018-11-04T03:51:22.649Z,92.20
2018-11-04T03:53:57.679Z,92.20
2018-11-04T03:56:25.934Z,92.20
2018-11-04T03:58:54.182Z,92.20
2018-11-04T04:01:22.432Z,92.20
2018-11-04T04:03:50.694Z,92.20
2018-11-04T04:06:18.882Z,92.20
2018-11-04T04:08:47.515Z,92.30
2018-11-04T04:11:15.691Z,92.40
2018-11-04T04:13:43.881Z,92.40
2018-11-04T04:16:12.073Z,92.50
2018-11-04T04:18:40.594Z,92.50
2018-11-04T04:21:09.501Z,92.60
2018-11-04T04:23:38.714Z,92.60
2018-11-04T04:26:07.533Z,92.70
2018-11-04T04:28:35.768Z,92.70
2018-11-04T04:31:03.947Z,92.60
2018-11-04T04:33:32.118Z,92.60
2018-11-04T04:36:00.438Z,92.50
2018-11-04T04:38:28.600Z,92.50
2018-11-04T04:40:56.798Z,92.60
2018-11-04T04:43:24.956Z,92.90
2018-11-04T04:45:53.197Z,92.50
2018-11-04T04:51:20.975Z,92.50
2018-11-04T04:53:49.236Z,92.60
2018-11-04T04:56:17.408Z,92.60
2018-11-04T04:58:45.621Z,92.50
2018-11-04T05:01:13.811Z,92.50
2018-11-04T05:03:42.021Z,92.50
2018-11-04T05:06:10.350Z,92.60
2018-11-04T05:08:38.546Z,92.50
2018-11-04T05:11:06.694Z,92.60
2018-11-04T05:13:35.006Z,92.60
2018-11-04T05:16:04.478Z,92.60
2018-11-04T05:18:37.841Z,92.60
2018-11-04T05:21:06.078Z,92.60
2018-11-04T05:23:40.758Z,92.60
2018-11-04T05:26:09.122Z,92.60
2018-11-04T05:28:37.362Z,92.60
2018-11-04T05:31:05.608Z,92.60
2018-11-04T05:33:33.884Z,92.70
2018-11-04T05:36:14.192Z,92.70
2018-11-04T05:38:42.389Z,92.70
2018-11-04T05:41:10.578Z,92.70
2018-11-04T05:43:38.799Z,92.80
2018-11-04T05:46:07.123Z,92.80
2018-11-04T05:48:35.406Z,92.80
2018-11-04T05:51:03.606Z,92.80
2018-11-04T05:53:32.002Z,92.80
2018-11-04T05:56:17.982Z,92.80
2018-11-04T05:58:46.225Z,92.90
2018-11-04T06:01:14.434Z,92.90
2018-11-04T06:03:42.701Z,92.90
2018-11-04T06:06:10.877Z,92.90
2018-11-04T06:08:39.089Z,92.90
2018-11-04T06:11:10.935Z,92.90
2018-11-04T06:13:42.900Z,92.90
2018-11-04T06:16:11.050Z,93.00
2018-11-04T06:18:39.257Z,93.00
2018-11-04T06:21:07.813Z,93.00
2018-11-04T06:26:18.038Z,93.10
2018-11-04T06:28:46.286Z,93.10
2018-11-04T06:31:14.469Z,93.10
2018-11-04T06:33:42.729Z,93.10
2018-11-04T06:36:10.907Z,93.10
2018-11-04T06:38:39.168Z,93.10
2018-11-04T06:41:07.483Z,93.10
2018-11-04T06:43:35.695Z,93.10
2018-11-04T06:46:03.912Z,93.10
2018-11-04T06:48:36.142Z,93.10
2018-11-04T06:51:04.815Z,93.10
2018-11-04T06:53:35.567Z,93.10
2018-11-04T06:56:03.988Z,93.10
2018-11-04T06:58:32.246Z,93.10
2018-11-04T07:01:00.449Z,93.10
2018-11-04T07:03:28.760Z,93.10
2018-11-04T07:05:56.968Z,93.10
2018-11-04T07:08:25.168Z,93.20
2018-11-04T07:10:53.484Z,93.20
2018-11-04T07:13:21.693Z,93.20
2018-11-04T07:15:49.981Z,93.20
2018-11-04T07:18:18.217Z,93.20
2018-11-04T07:20:50.609Z,93.30
2018-11-04T07:23:18.824Z,93.20
2018-11-04T07:25:47.133Z,93.20
2018-11-04T07:28:15.259Z,93.20
2018-11-04T07:30:43.473Z,93.20
2018-11-04T07:33:11.766Z,93.40
2018-11-04T07:35:39.957Z,93.20
2018-11-04T07:38:08.148Z,93.10
2018-11-04T07:40:36.432Z,93.20
2018-11-04T07:43:09.791Z,93.20
2018-11-04T07:45:38.051Z,93.50
2018-11-04T07:48:06.273Z,93.20
2018-11-04T07:50:34.524Z,93.20
2018-11-04T07:53:02.813Z,93.30
2018-11-04T07:55:31.086Z,93.40
2018-11-04T07:57:59.349Z,93.20
2018-11-04T08:00:27.523Z,93.20
2018-11-04T08:02:55.809Z,93.20
2018-11-04T08:05:24.139Z,93.20
2018-11-04T08:07:52.336Z,93.20
2018-11-04T08:10:20.527Z,93.20
2018-11-04T08:12:51.352Z,93.20
2018-11-04T08:15:19.568Z,93.20
2018-11-04T08:17:47.789Z,93.20
2018-11-04T08:20:16.157Z,93.20
2018-11-04T08:22:44.517Z,93.20
2018-11-04T08:25:12.696Z,93.20
2018-11-04T08:27:40.924Z,93.20
2018-11-04T08:30:09.432Z,93.30
2018-11-04T08:32:38.773Z,93.20
2018-11-04T08:35:06.992Z,93.20
2018-11-04T08:37:35.230Z,93.20
2018-11-04T08:40:03.681Z,93.20
2018-11-04T08:42:31.835Z,93.20
2018-11-04T08:45:00.197Z,93.20
2018-11-04T08:47:39.238Z,93.20
2018-11-04T08:50:08.417Z,93.20
2018-11-04T08:52:36.677Z,93.20
2018-11-04T08:55:05.687Z,93.10
2018-11-04T08:57:33.912Z,93.20
2018-11-04T09:00:02.471Z,93.20
2018-11-04T09:02:30.695Z,93.20
2018-11-04T09:04:58.941Z,93.10
2018-11-04T09:07:27.232Z,93.20
2018-11-04T09:10:02.056Z,93.20
2018-11-04T09:12:30.265Z,93.10
2018-11-04T09:14:58.683Z,93.10
2018-11-04T09:17:27.045Z,93.20
2018-11-04T09:19:56.412Z,93.20
2018-11-04T09:22:25.065Z,93.10
2018-11-04T09:24:53.261Z,93.10
2018-11-04T09:27:21.556Z,93.10
2018-11-04T09:29:50.027Z,93.10
2018-11-04T09:32:18.409Z,93.50
2018-11-04T09:34:46.837Z,93.10
2018-11-04T09:37:15.041Z,93.10
2018-11-04T09:39:43.384Z,93.20
2018-11-04T09:42:11.661Z,93.10
2018-11-04T09:44:39.871Z,93.10
2018-11-04T09:47:08.381Z,93.20
2018-11-04T09:49:36.708Z,93.10
2018-11-04T09:52:05.263Z,93.10
2018-11-04T09:54:33.584Z,93.10
2018-11-04T09:57:01.943Z,93.10
2018-11-04T09:59:30.735Z,93.10
2018-11-04T10:01:59.298Z,93.10
2018-11-04T10:04:27.662Z,93.10
2018-11-04T10:06:55.894Z,93.00
2018-11-04T10:09:34.891Z,93.00
2018-11-04T10:12:03.421Z,93.10
2018-11-04T10:17:22.416Z,93.00
2018-11-04T10:19:51.227Z,93.10
2018-11-04T10:22:19.681Z,93.00
2018-11-04T10:24:47.985Z,93.10
2018-11-04T10:27:23.085Z,93.00
2018-11-04T10:29:51.405Z,93.00
2018-11-04T10:32:19.822Z,93.10
2018-11-04T10:34:48.269Z,93.10
2018-11-04T10:37:16.725Z,93.20
2018-11-04T10:39:45.225Z,93.10
2018-11-04T10:42:13.622Z,93.10
2018-11-04T10:44:42.136Z,93.10
2018-11-04T10:47:10.463Z,93.10
2018-11-04T10:49:38.836Z,93.10
2018-11-04T10:52:07.497Z,93.10
2018-11-04T10:54:39.889Z,93.10
2018-11-04T10:57:09.478Z,93.10
2018-11-04T11:02:41.553Z,93.10
2018-11-04T11:05:09.973Z,93.10
2018-11-04T11:07:38.213Z,93.10
2018-11-04T11:10:07.592Z,93.40
2018-11-04T11:12:36.241Z,93.00
2018-11-04T11:17:57.715Z,93.00
2018-11-04T11:20:26.057Z,93.00
2018-11-04T11:22:54.431Z,93.00
2018-11-04T11:25:22.689Z,93.00
2018-11-04T11:30:42.672Z,93.10
2018-11-04T11:33:10.978Z,93.10
2018-11-04T11:35:43.304Z,93.00
2018-11-04T11:38:11.639Z,93.10
2018-11-04T11:40:40.966Z,93.00
2018-11-04T11:43:09.289Z,93.10
2018-11-04T11:45:37.618Z,93.00
2018-11-04T11:48:06.151Z,92.50
2018-11-04T11:53:26.653Z,92.50
2018-11-04T11:58:45.765Z,92.50
2018-11-04T12:01:14.060Z,92.40
2018-11-04T12:03:42.813Z,92.30
2018-11-04T12:06:11.131Z,92.30
2018-11-04T12:08:39.537Z,92.30
2018-11-04T12:11:12.369Z,92.30
2018-11-04T12:13:40.589Z,92.30
2018-11-04T12:16:09.134Z,92.30
2018-11-04T12:18:49.124Z,92.20
2018-11-04T12:21:17.854Z,92.30
2018-11-04T12:23:46.367Z,92.30
2018-11-04T12:26:15.707Z,92.20
2018-11-04T12:28:44.316Z,92.20
2018-11-04T12:31:12.655Z,92.20
2018-11-04T12:33:41.209Z,92.20
2018-11-04T12:39:01.243Z,92.20
2018-11-04T12:41:29.697Z,92.30
2018-11-04T12:43:58.312Z,92.20
2018-11-04T12:46:26.553Z,92.20
2018-11-04T12:48:54.909Z,92.20
2018-11-04T12:51:23.297Z,92.20
2018-11-04T12:53:51.707Z,92.20
2018-11-04T12:56:20.128Z,92.20
2018-11-04T12:58:48.529Z,92.20
2018-11-04T13:01:17.066Z,92.20
2018-11-04T13:03:45.490Z,92.20
2018-11-04T13:06:18.819Z,92.20
2018-11-04T13:08:47.610Z,92.10
2018-11-04T13:11:16.096Z,92.20
2018-11-04T13:13:44.696Z,92.10
2018-11-04T13:16:13.269Z,92.20
2018-11-04T13:18:41.842Z,92.10
2018-11-04T13:21:10.381Z,92.10
2018-11-04T13:23:38.737Z,92.20
2018-11-04T13:26:07.060Z,92.40
2018-11-04T13:28:35.724Z,92.10
2018-11-04T13:31:04.126Z,92.10
2018-11-04T13:33:37.699Z,92.10
2018-11-04T13:36:06.099Z,92.10
2018-11-04T13:38:41.287Z,92.10
2018-11-04T13:41:09.853Z,92.10
2018-11-04T13:43:38.254Z,92.10
2018-11-04T13:46:06.711Z,92.00
2018-11-04T13:48:35.076Z,92.00
2018-11-04T13:51:03.465Z,91.90
2018-11-04T13:53:31.915Z,92.00
2018-11-04T13:56:00.246Z,91.90
2018-11-04T13:58:28.538Z,91.90
2018-11-04T14:01:17.612Z,91.90
2018-11-04T14:03:45.797Z,91.90
2018-11-04T14:06:18.120Z,91.90
2018-11-04T14:08:46.341Z,91.90
2018-11-04T14:11:14.919Z,91.90
2018-11-04T14:13:43.172Z,91.90
2018-11-04T14:16:11.524Z,91.90
2018-11-04T14:18:39.780Z,91.90
2018-11-04T14:21:08.008Z,91.80
2018-11-04T14:23:36.286Z,91.90
2018-11-04T14:26:04.700Z,91.90
2018-11-04T14:28:44.813Z,91.90
2018-11-04T14:31:13.144Z,91.80
2018-11-04T14:33:41.312Z,91.80
2018-11-04T14:36:09.608Z,91.90
2018-11-04T14:38:37.873Z,91.80
2018-11-04T14:41:06.885Z,91.80
2018-11-04T14:43:41.108Z,91.80
2018-11-04T14:46:09.392Z,91.80
2018-11-04T14:48:37.658Z,91.80
2018-11-04T14:51:05.916Z,91.80
2018-11-04T14:53:34.241Z,91.80
2018-11-04T14:56:02.468Z,91.80
2018-11-04T14:58:32.973Z,91.80
2018-11-04T15:01:01.197Z,91.80
2018-11-04T15:03:29.401Z,91.80
2018-11-04T15:05:57.648Z,91.80
2018-11-04T15:08:25.892Z,91.80
2018-11-04T15:10:58.841Z,91.80
2018-11-04T15:13:28.217Z,91.80
2018-11-04T15:15:56.476Z,91.80
2018-11-04T15:18:24.788Z,91.80
2018-11-04T15:20:53.028Z,91.80
2018-11-04T15:23:23.812Z,91.90
2018-11-04T15:25:52.092Z,91.90
2018-11-04T15:28:31.288Z,91.90
2018-11-04T15:30:59.518Z,91.80
2018-11-04T15:33:27.805Z,91.80
2018-11-04T15:35:56.044Z,91.90
2018-11-04T15:38:24.295Z,91.90
2018-11-04T15:40:52.535Z,91.90
2018-11-04T15:43:20.941Z,91.90
2018-11-04T15:45:49.167Z,91.90
2018-11-04T15:48:17.425Z,91.90
2018-11-04T15:50:49.749Z,91.90
2018-11-04T15:53:18.168Z,91.90
2018-11-04T15:55:46.471Z,91.90
2018-11-04T15:58:14.691Z,91.90
2018-11-04T16:00:42.945Z,91.90
2018-11-04T16:03:11.149Z,91.90
2018-11-04T16:05:40.579Z,91.90
2018-11-04T16:08:08.830Z,92.00
2018-11-04T16:10:37.261Z,92.00
2018-11-04T16:13:05.529Z,92.00
2018-11-04T16:15:33.905Z,92.00
2018-11-04T16:18:02.194Z,92.00
2018-11-04T16:20:30.391Z,92.00
2018-11-04T16:22:58.634Z,92.00
2018-11-04T16:25:33.141Z,92.10
2018-11-04T16:28:01.346Z,92.10
2018-11-04T16:30:29.709Z,92.10
2018-11-04T16:32:58.006Z,92.10
2018-11-04T16:35:26.291Z,92.10
2018-11-04T16:37:54.574Z,92.10
2018-11-04T16:40:23.208Z,92.10
2018-11-04T16:43:04.748Z,92.20
2018-11-04T16:45:33.142Z,92.20
2018-11-04T16:48:01.399Z,92.20
2018-11-04T16:50:29.626Z,92.20
2018-11-04T16:52:57.877Z,92.20
2018-11-04T16:55:38.765Z,92.20
2018-11-04T16:58:07.076Z,92.20
2018-11-04T17:00:35.474Z,92.20
2018-11-04T17:03:03.898Z,92.20
2018-11-04T17:05:32.440Z,92.30
2018-11-04T17:08:01.264Z,92.20
2018-11-04T17:10:29.511Z,92.20
2018-11-04T17:12:57.888Z,92.20
2018-11-04T17:15:26.108Z,92.30
2018-11-04T17:17:54.346Z,92.30
2018-11-04T17:20:22.612Z,92.20
2018-11-04T17:22:50.891Z,92.30
2018-11-04T17:25:19.100Z,92.30
2018-11-04T17:27:47.416Z,92.20
2018-11-04T17:30:16.852Z,92.20
2018-11-04T17:32:45.316Z,92.30
2018-11-04T17:35:14.433Z,92.30
2018-11-04T17:37:50.340Z,92.30
2018-11-04T17:40:18.723Z,92.30
2018-11-04T17:42:46.997Z,92.30
2018-11-04T17:45:16.429Z,92.30
2018-11-04T17:47:45.485Z,92.30
2018-11-04T17:50:20.137Z,93.10
2018-11-04T17:52:48.433Z,92.80
2018-11-04T17:55:16.831Z,92.80
2018-11-04T17:57:45.327Z,92.80
2018-11-04T18:00:14.976Z,92.90
2018-11-04T18:02:43.574Z,92.90
2018-11-04T18:05:12.491Z,92.80
2018-11-04T18:07:41.566Z,92.90
2018-11-04T18:10:17.169Z,92.90
2018-11-04T18:21:43.589Z,92.90
2018-11-04T18:24:12.000Z,93.20
2018-11-04T18:26:40.375Z,92.90
2018-11-04T18:29:08.748Z,92.90
2018-11-04T18:31:37.089Z,92.90
2018-11-04T18:36:55.645Z,93.00
2018-11-04T18:39:23.927Z,93.00
2018-11-04T18:41:52.250Z,93.00
2018-11-04T18:44:20.619Z,93.00
2018-11-04T18:46:49.015Z,93.10
2018-11-04T18:49:17.366Z,93.00
2018-11-04T18:51:46.774Z,93.00
2018-11-04T18:54:15.328Z,93.00
2018-11-04T18:56:47.308Z,93.00
2018-11-04T18:59:15.674Z,93.00
2018-11-04T19:01:44.040Z,93.10
2018-11-04T19:04:12.482Z,93.10
2018-11-04T19:06:45.772Z,93.10
2018-11-04T19:09:14.134Z,93.10
2018-11-04T19:11:42.561Z,93.20
2018-11-04T19:14:10.866Z,93.20
2018-11-04T19:22:20.793Z,93.20
2018-11-04T19:24:49.101Z,93.20
2018-11-04T19:27:17.488Z,93.20
2018-11-04T19:29:45.837Z,93.20
2018-11-04T19:32:18.366Z,93.20
2018-11-04T19:34:46.750Z,93.30
2018-11-04T19:37:15.242Z,93.20
2018-11-04T19:39:43.470Z,93.30
2018-11-04T19:42:11.797Z,93.30
2018-11-04T19:44:40.064Z,93.30
2018-11-04T19:47:08.585Z,93.30
2018-11-04T19:49:36.966Z,93.30
2018-11-04T19:52:05.238Z,93.30
2018-11-04T19:54:33.998Z,93.30
2018-11-04T19:57:02.461Z,93.00
2018-11-04T19:59:30.788Z,93.30
2018-11-04T20:02:01.160Z,93.30
2018-11-04T20:04:35.810Z,93.30
2018-11-04T20:07:04.189Z,93.40
2018-11-04T20:09:32.642Z,93.40
2018-11-04T20:12:00.949Z,93.30
2018-11-04T20:14:29.280Z,93.40
2018-11-04T20:16:57.546Z,93.40
2018-11-04T20:19:31.307Z,93.40
2018-11-04T20:22:03.357Z,93.40
2018-11-04T20:24:37.005Z,93.40
2018-11-04T20:27:05.398Z,93.40
2018-11-04T20:29:33.814Z,93.40
2018-11-04T20:32:07.429Z,93.40
2018-11-04T20:34:35.811Z,93.40
2018-11-04T20:37:05.227Z,93.50
2018-11-04T20:39:38.934Z,93.50
2018-11-04T20:42:07.280Z,93.40
2018-11-04T20:44:39.885Z,93.40
2018-11-04T20:47:08.234Z,93.80
2018-11-04T20:49:42.038Z,93.40
2018-11-04T20:52:10.315Z,93.50
2018-11-04T20:54:38.873Z,93.50
2018-11-04T20:57:12.538Z,93.60
2018-11-04T20:59:40.940Z,93.50
2018-11-04T21:02:09.365Z,93.60
2018-11-04T21:04:37.607Z,93.60
2018-11-04T21:07:06.040Z,93.60
2018-11-04T21:09:38.321Z,93.60
2018-11-04T21:12:06.888Z,93.60
2018-11-04T21:14:35.207Z,93.60
2018-11-04T21:17:03.513Z,93.60
2018-11-04T21:19:31.736Z,93.60
2018-11-04T21:22:00.086Z,93.60
2018-11-04T21:24:28.286Z,93.60
2018-11-04T21:26:56.684Z,93.60
2018-11-04T21:29:25.260Z,93.60
2018-11-04T21:31:53.261Z,93.60
2018-11-04T21:34:21.548Z,94.00
2018-11-04T21:36:49.850Z,93.70
2018-11-04T21:39:18.134Z,93.70
2018-11-04T21:41:46.461Z,93.70
2018-11-04T21:44:14.857Z,93.70
2018-11-04T21:46:45.013Z,93.80
2018-11-04T21:49:13.364Z,93.70
2018-11-04T21:51:41.641Z,93.80
2018-11-04T21:54:11.194Z,93.70
2018-11-04T21:56:39.585Z,93.80
2018-11-04T21:59:11.577Z,93.80
2018-11-04T22:01:39.817Z,93.80
2018-11-04T22:04:22.849Z,93.80
2018-11-04T22:06:51.052Z,93.80
2018-11-04T22:09:19.293Z,93.90
2018-11-04T22:11:47.566Z,93.80
2018-11-04T22:14:15.939Z,93.80
2018-11-04T22:16:44.183Z,93.90
2018-11-04T22:19:12.417Z,93.90
2018-11-04T22:21:40.704Z,93.90
2018-11-04T22:24:10.046Z,93.90
2018-11-04T22:26:38.320Z,93.90
2018-11-04T22:29:06.827Z,93.90
2018-11-04T22:31:35.178Z,93.90
2018-11-04T22:34:03.506Z,94.00
2018-11-04T22:36:31.862Z,93.90
2018-11-04T22:39:00.250Z,93.90
2018-11-04T22:41:28.521Z,94.00
2018-11-04T22:43:56.809Z,94.00
2018-11-04T22:46:25.221Z,94.00
2018-11-04T22:48:53.474Z,94.00
2018-11-04T22:51:25.266Z,94.00
2018-11-04T22:53:53.734Z,94.00
2018-11-04T22:56:22.173Z,94.00
2018-11-04T22:58:50.445Z,94.00
2018-11-04T23:01:18.794Z,94.00
2018-11-04T23:03:47.134Z,94.00
2018-11-04T23:06:15.299Z,94.10
2018-11-04T23:08:43.605Z,94.10
2018-11-04T23:11:11.885Z,94.20
2018-11-04T23:13:40.122Z,94.10
2018-11-04T23:16:08.593Z,94.10
2018-11-04T23:18:36.927Z,94.20
2018-11-04T23:21:05.419Z,94.20
2018-11-04T23:23:33.712Z,94.10
2018-11-04T23:26:01.934Z,94.10
2018-11-04T23:28:30.139Z,94.10
2018-11-04T23:30:58.414Z,94.50
2018-11-04T23:33:26.631Z,94.20
2018-11-04T23:35:54.891Z,94.20
2018-11-04T23:38:23.093Z,94.20
2018-11-04T23:40:51.353Z,94.20
2018-11-04T23:43:19.621Z,94.20
2018-11-04T23:45:47.924Z,94.20
2018-11-04T23:48:16.481Z,94.30
2018-11-04T23:50:44.782Z,94.20
2018-11-04T23:53:13.061Z,94.20
2018-11-04T23:55:41.518Z,94.20
2018-11-04T23:58:10.559Z,94.30
